createdAt,value
2017-10-16T00:00:50.004Z,86.20
2017-10-16T00:03:17.542Z,86.00
2017-10-16T00:05:45.095Z,85.80
2017-10-16T00:08:12.624Z,85.60
2017-10-16T00:10:40.928Z,85.70
2017-10-16T00:13:08.494Z,85.60
2017-10-16T00:15:36.129Z,85.60
2017-10-16T00:18:04.428Z,85.70
2017-10-16T00:20:32.020Z,85.70
2017-10-16T00:22:59.546Z,85.80
2017-10-16T00:25:27.076Z,85.60
2017-10-16T00:27:54.634Z,85.50
2017-10-16T00:30:22.173Z,85.50
2017-10-16T00:32:49.703Z,85.50
2017-10-16T00:35:17.268Z,85.20
2017-10-16T00:37:44.805Z,85.00
2017-10-16T00:40:12.336Z,85.00
2017-10-16T00:42:40.699Z,85.10
2017-10-16T00:45:08.227Z,85.00
2017-10-16T00:47:36.144Z,84.80
2017-10-16T00:50:03.693Z,84.90
2017-10-16T00:52:32.005Z,84.80
2017-10-16T00:54:59.541Z,84.70
2017-10-16T00:57:27.864Z,84.70
2017-10-16T00:59:55.399Z,84.70
2017-10-16T01:02:22.927Z,84.80
2017-10-16T01:04:50.516Z,85.20
2017-10-16T01:07:18.064Z,84.80
2017-10-16T01:09:46.372Z,85.00
2017-10-16T01:12:25.263Z,84.90
2017-10-16T01:17:25.642Z,84.70
2017-10-16T01:19:53.235Z,84.90
2017-10-16T01:22:20.780Z,84.90
2017-10-16T01:24:48.321Z,85.20
2017-10-16T01:27:16.451Z,85.00
2017-10-16T01:29:44.747Z,85.70
2017-10-16T01:32:12.284Z,85.50
2017-10-16T01:34:40.623Z,84.80
2017-10-16T01:37:08.148Z,84.80
2017-10-16T01:39:35.672Z,84.60
2017-10-16T01:42:03.256Z,84.50
2017-10-16T01:44:31.547Z,84.50
2017-10-16T01:46:59.075Z,84.50
2017-10-16T01:49:26.636Z,84.30
2017-10-16T01:51:54.164Z,84.40
2017-10-16T01:54:21.701Z,84.10
2017-10-16T01:56:49.284Z,84.30
2017-10-16T01:59:16.812Z,84.40
2017-10-16T02:01:44.343Z,84.80
2017-10-16T02:04:11.932Z,84.60
2017-10-16T02:06:39.467Z,84.60
2017-10-16T02:09:07.774Z,84.50
2017-10-16T02:11:36.096Z,84.20
2017-10-16T02:14:03.632Z,84.20
2017-10-16T02:16:31.169Z,84.10
2017-10-16T02:18:58.735Z,84.00
2017-10-16T02:21:26.272Z,84.10
2017-10-16T02:23:53.828Z,84.40
2017-10-16T02:26:22.172Z,84.40
2017-10-16T02:28:49.704Z,84.40
2017-10-16T02:31:17.230Z,84.60
2017-10-16T02:33:44.794Z,84.30
2017-10-16T02:36:12.328Z,84.30
2017-10-16T02:38:40.624Z,84.20
2017-10-16T02:41:08.183Z,84.10
2017-10-16T02:43:35.711Z,84.00
2017-10-16T02:46:03.235Z,84.10
2017-10-16T02:48:30.827Z,84.00
2017-10-16T02:50:58.575Z,84.10
2017-10-16T02:53:26.108Z,84.00
2017-10-16T02:55:53.682Z,83.60
2017-10-16T02:58:21.210Z,83.30
2017-10-16T03:00:48.745Z,83.20
2017-10-16T03:03:16.428Z,83.30
2017-10-16T03:05:43.964Z,83.40
2017-10-16T03:08:12.269Z,83.60
2017-10-16T03:10:39.869Z,83.50
2017-10-16T03:13:07.392Z,84.70
2017-10-16T03:15:34.928Z,85.10
2017-10-16T03:18:02.490Z,84.40
2017-10-16T03:20:30.788Z,84.10
2017-10-16T03:22:58.319Z,84.00
2017-10-16T03:25:25.887Z,83.70
2017-10-16T03:27:53.428Z,83.50
2017-10-16T03:30:21.423Z,84.30
2017-10-16T03:32:49.771Z,84.30
2017-10-16T03:35:17.295Z,84.30
2017-10-16T03:37:44.815Z,84.30
2017-10-16T03:40:12.379Z,84.30
2017-10-16T03:42:40.671Z,84.20
2017-10-16T03:45:08.195Z,84.20
2017-10-16T03:47:35.751Z,84.30
2017-10-16T03:50:03.287Z,84.60
2017-10-16T03:52:33.255Z,84.20
2017-10-16T03:55:00.864Z,84.30
2017-10-16T03:57:28.395Z,84.50
2017-10-16T03:59:55.912Z,84.60
2017-10-16T04:02:23.488Z,84.70
2017-10-16T04:04:51.778Z,84.70
2017-10-16T04:07:19.311Z,84.70
2017-10-16T04:09:46.865Z,84.70
2017-10-16T04:12:15.455Z,84.90
2017-10-16T04:14:42.983Z,85.10
2017-10-16T04:17:10.565Z,84.90
2017-10-16T04:19:38.100Z,84.80
2017-10-16T04:22:05.642Z,84.70
2017-10-16T04:24:33.200Z,84.80
2017-10-16T04:27:00.749Z,84.60
2017-10-16T04:29:28.282Z,84.60
2017-10-16T04:31:56.652Z,84.70
2017-10-16T04:34:24.179Z,84.70
2017-10-16T04:36:51.720Z,84.80
2017-10-16T04:39:19.320Z,84.70
2017-10-16T04:41:46.855Z,84.70
2017-10-16T04:44:25.327Z,85.00
2017-10-16T04:49:25.307Z,84.90
2017-10-16T04:51:52.863Z,85.20
2017-10-16T04:54:20.640Z,85.60
2017-10-16T04:56:48.167Z,86.10
2017-10-16T04:59:16.699Z,86.20
2017-10-16T05:01:44.226Z,86.50
2017-10-16T05:04:11.760Z,86.50
2017-10-16T05:06:39.324Z,86.40
2017-10-16T05:09:06.851Z,86.20
2017-10-16T05:11:37.595Z,86.50
2017-10-16T05:14:05.152Z,86.50
2017-10-16T05:16:32.680Z,86.10
2017-10-16T05:19:01.307Z,86.00
2017-10-16T05:21:29.648Z,85.50
2017-10-16T05:23:57.193Z,85.40
2017-10-16T05:26:24.725Z,85.20
2017-10-16T05:28:52.275Z,85.20
2017-10-16T05:31:19.799Z,85.10
2017-10-16T05:33:47.327Z,84.90
2017-10-16T05:36:17.180Z,84.90
2017-10-16T05:38:45.463Z,84.80
2017-10-16T05:41:25.362Z,84.70
2017-10-16T05:46:24.619Z,84.60
2017-10-16T05:48:52.943Z,85.00
2017-10-16T05:51:20.671Z,85.00
2017-10-16T05:53:48.202Z,84.90
2017-10-16T05:56:17.717Z,84.70
2017-10-16T05:58:45.249Z,84.70
2017-10-16T06:01:13.692Z,84.60
2017-10-16T06:03:41.275Z,84.40
2017-10-16T06:06:08.799Z,84.30
2017-10-16T06:08:36.327Z,84.20
2017-10-16T06:11:03.888Z,84.30
2017-10-16T06:13:31.416Z,84.30
2017-10-16T06:15:58.936Z,84.20
2017-10-16T06:18:26.497Z,82.90
2017-10-16T06:20:54.896Z,82.70
2017-10-16T06:23:22.419Z,82.60
2017-10-16T06:25:50.352Z,82.60
2017-10-16T06:28:17.883Z,82.50
2017-10-16T06:30:45.419Z,82.80
2017-10-16T06:33:23.547Z,82.60
2017-10-16T06:35:51.128Z,82.30
2017-10-16T06:38:18.659Z,82.10
2017-10-16T06:40:46.217Z,82.00
2017-10-16T06:43:25.478Z,81.80
2017-10-16T06:47:01.927Z,81.60
2017-10-16T06:49:30.219Z,81.60
2017-10-16T06:51:57.751Z,81.60
2017-10-16T06:54:26.064Z,80.80
2017-10-16T06:56:53.588Z,80.80
2017-10-16T06:59:21.892Z,80.70
2017-10-16T07:01:49.459Z,80.60
2017-10-16T07:04:16.987Z,80.80
2017-10-16T07:06:47.331Z,80.60
2017-10-16T07:09:17.262Z,80.60
2017-10-16T07:11:44.791Z,80.60
2017-10-16T07:14:13.999Z,80.70
2017-10-16T07:16:41.564Z,80.60
2017-10-16T07:19:09.091Z,80.90
2017-10-16T07:21:36.615Z,80.90
2017-10-16T07:24:04.163Z,80.40
2017-10-16T07:26:31.699Z,79.90
2017-10-16T07:28:59.236Z,79.80
2017-10-16T07:31:26.816Z,79.40
2017-10-16T07:33:54.347Z,77.40
2017-10-16T07:36:22.149Z,70.50
2017-10-16T07:38:49.712Z,66.00
2017-10-16T07:41:17.248Z,58.30
2017-10-16T07:43:45.893Z,53.30
2017-10-16T07:46:15.372Z,48.60
2017-10-16T07:48:42.904Z,48.30
2017-10-16T07:51:11.204Z,44.50
2017-10-16T07:53:38.788Z,44.30
2017-10-16T07:56:06.324Z,41.90
2017-10-16T07:58:33.852Z,38.70
2017-10-16T08:01:02.168Z,34.50
2017-10-16T08:03:29.695Z,34.50
2017-10-16T08:05:57.996Z,33.90
2017-10-16T08:08:26.331Z,32.90
2017-10-16T08:10:53.850Z,32.80
2017-10-16T08:13:21.381Z,31.50
2017-10-16T08:15:49.383Z,29.90
2017-10-16T08:18:16.929Z,30.80
2017-10-16T08:20:44.464Z,30.60
2017-10-16T08:23:12.784Z,31.30
2017-10-16T08:25:40.315Z,31.30
2017-10-16T08:28:07.849Z,30.40
2017-10-16T08:30:35.945Z,29.70
2017-10-16T08:33:03.475Z,31.60
2017-10-16T08:35:31.772Z,30.80
2017-10-16T08:37:59.364Z,30.60
2017-10-16T08:40:26.900Z,30.40
2017-10-16T08:42:55.005Z,29.30
2017-10-16T08:45:22.599Z,29.10
2017-10-16T08:47:50.141Z,27.60
2017-10-16T08:50:17.700Z,27.80
2017-10-16T08:52:45.292Z,28.60
2017-10-16T08:55:14.528Z,28.40
2017-10-16T08:57:42.062Z,28.20
2017-10-16T09:00:10.072Z,26.30
2017-10-16T09:02:37.601Z,26.50
2017-10-16T09:05:05.462Z,25.70
2017-10-16T09:07:33.029Z,25.30
2017-10-16T09:10:00.568Z,25.30
2017-10-16T09:12:28.113Z,23.40
2017-10-16T09:14:56.452Z,23.90
2017-10-16T09:17:24.011Z,23.80
2017-10-16T09:19:51.556Z,24.00
2017-10-16T09:22:19.140Z,22.20
2017-10-16T09:24:46.671Z,22.80
2017-10-16T09:27:16.349Z,22.10
2017-10-16T09:29:43.911Z,22.00
2017-10-16T09:32:11.451Z,21.40
2017-10-16T09:34:39.773Z,21.30
2017-10-16T09:37:08.112Z,22.30
2017-10-16T09:39:35.643Z,22.30
2017-10-16T09:42:03.175Z,22.80
2017-10-16T09:44:31.555Z,23.10
2017-10-16T09:46:59.108Z,22.80
2017-10-16T09:49:26.649Z,21.40
2017-10-16T09:51:54.212Z,21.50
2017-10-16T09:54:21.746Z,21.10
2017-10-16T09:56:50.048Z,21.50
2017-10-16T09:59:17.608Z,21.50
2017-10-16T10:01:45.476Z,22.00
2017-10-16T10:04:14.620Z,22.60
2017-10-16T10:06:42.219Z,24.30
2017-10-16T10:09:09.748Z,25.80
2017-10-16T10:11:38.109Z,27.80
2017-10-16T10:14:05.667Z,27.60
2017-10-16T10:16:33.199Z,29.20
2017-10-16T10:19:00.728Z,30.00
2017-10-16T10:21:28.568Z,31.10
2017-10-16T10:23:56.106Z,33.00
2017-10-16T10:26:23.650Z,34.20
2017-10-16T10:28:51.231Z,34.70
2017-10-16T10:31:18.772Z,37.00
2017-10-16T10:33:46.312Z,37.60
2017-10-16T10:36:15.584Z,39.10
2017-10-16T10:38:43.111Z,39.50
2017-10-16T10:41:10.643Z,40.10
2017-10-16T10:43:38.968Z,41.90
2017-10-16T10:46:06.496Z,41.80
2017-10-16T10:48:34.031Z,40.60
2017-10-16T10:51:01.641Z,40.00
2017-10-16T10:53:29.170Z,42.60
2017-10-16T10:55:56.709Z,44.10
2017-10-16T10:58:24.680Z,43.40
2017-10-16T11:00:52.215Z,42.80
2017-10-16T11:03:21.112Z,44.10
2017-10-16T11:05:48.678Z,43.90
2017-10-16T11:08:16.398Z,43.00
2017-10-16T11:10:43.923Z,43.50
2017-10-16T11:13:11.495Z,45.40
2017-10-16T11:15:39.031Z,45.80
2017-10-16T11:18:06.606Z,44.70
2017-10-16T11:20:34.164Z,45.00
2017-10-16T11:23:01.814Z,45.50
2017-10-16T11:25:29.384Z,43.90
2017-10-16T11:27:57.074Z,45.60
2017-10-16T11:30:24.620Z,43.60
2017-10-16T11:38:33.579Z,44.90
2017-10-16T11:41:01.107Z,43.90
2017-10-16T11:43:28.728Z,44.80
2017-10-16T11:45:56.300Z,45.90
2017-10-16T11:48:23.834Z,44.40
2017-10-16T11:50:51.577Z,45.00
2017-10-16T11:53:19.144Z,45.60
2017-10-16T11:55:46.687Z,44.40
2017-10-16T11:58:16.287Z,44.40
2017-10-16T12:00:43.884Z,44.30
2017-10-16T12:03:11.424Z,45.10
2017-10-16T12:05:40.075Z,45.50
2017-10-16T12:08:07.652Z,45.40
2017-10-16T12:10:35.183Z,44.80
2017-10-16T12:13:02.947Z,43.90
2017-10-16T12:15:30.520Z,44.00
2017-10-16T12:17:58.832Z,45.20
2017-10-16T12:20:26.367Z,45.10
2017-10-16T12:22:54.003Z,44.10
2017-10-16T12:25:21.539Z,46.30
2017-10-16T12:27:49.092Z,43.50
2017-10-16T12:30:16.664Z,44.20
2017-10-16T12:32:44.572Z,42.30
2017-10-16T12:35:12.107Z,42.60
2017-10-16T12:37:39.667Z,43.80
2017-10-16T12:40:07.211Z,42.00
2017-10-16T12:42:34.750Z,41.10
2017-10-16T12:45:02.347Z,41.40
2017-10-16T12:47:29.888Z,40.50
2017-10-16T12:49:57.429Z,40.70
2017-10-16T12:52:25.759Z,42.70
2017-10-16T12:54:53.315Z,42.70
2017-10-16T12:57:21.615Z,43.20
2017-10-16T12:59:49.201Z,43.10
2017-10-16T13:02:16.754Z,43.80
2017-10-16T13:04:44.296Z,43.00
2017-10-16T13:07:13.235Z,42.90
2017-10-16T13:09:40.819Z,43.00
2017-10-16T13:12:08.357Z,43.30
2017-10-16T13:14:35.948Z,44.30
2017-10-16T13:17:04.266Z,44.40
2017-10-16T13:19:31.850Z,44.40
2017-10-16T13:21:59.435Z,44.30
2017-10-16T13:24:26.984Z,45.60
2017-10-16T13:26:54.535Z,45.00
2017-10-16T13:29:22.143Z,45.00
2017-10-16T13:31:49.686Z,46.00
2017-10-16T13:34:17.257Z,46.20
2017-10-16T13:36:44.868Z,45.90
2017-10-16T13:39:12.416Z,45.80
2017-10-16T13:41:40.090Z,46.00
2017-10-16T13:44:07.691Z,46.00
2017-10-16T13:46:36.008Z,45.50
2017-10-16T13:49:03.571Z,45.40
2017-10-16T13:51:31.188Z,46.30
2017-10-16T13:53:58.802Z,45.80
2017-10-16T13:56:26.363Z,45.90
2017-10-16T13:58:53.942Z,45.70
2017-10-16T14:01:21.520Z,46.20
2017-10-16T14:03:49.067Z,46.90
2017-10-16T14:06:16.681Z,46.00
2017-10-16T14:08:44.645Z,45.20
2017-10-16T14:11:12.195Z,45.70
2017-10-16T14:13:40.572Z,46.90
2017-10-16T14:16:08.918Z,47.00
2017-10-16T14:18:36.632Z,47.00
2017-10-16T14:21:04.201Z,46.30
2017-10-16T14:23:31.743Z,46.40
2017-10-16T14:25:59.282Z,46.50
2017-10-16T14:28:26.867Z,47.30
2017-10-16T14:30:54.409Z,47.90
2017-10-16T14:33:21.939Z,47.00
2017-10-16T14:35:50.088Z,46.90
2017-10-16T14:38:17.629Z,47.10
2017-10-16T14:40:45.172Z,47.50
2017-10-16T14:43:13.669Z,47.50
2017-10-16T14:45:41.228Z,47.80
2017-10-16T14:48:08.759Z,47.40
2017-10-16T14:50:36.348Z,47.10
2017-10-16T14:53:03.880Z,47.40
2017-10-16T14:55:32.188Z,48.10
2017-10-16T14:57:59.788Z,48.00
2017-10-16T15:00:27.327Z,48.60
2017-10-16T15:02:54.865Z,49.00
2017-10-16T15:05:22.448Z,49.60
2017-10-16T15:07:49.986Z,50.50
2017-10-16T15:10:18.127Z,51.70
2017-10-16T15:12:45.775Z,52.50
2017-10-16T15:15:15.411Z,54.30
2017-10-16T15:17:43.699Z,54.50
2017-10-16T15:20:11.290Z,54.50
2017-10-16T15:22:38.823Z,55.00
2017-10-16T15:25:06.348Z,55.30
2017-10-16T15:27:34.988Z,56.30
2017-10-16T15:30:02.536Z,56.30
2017-10-16T15:32:30.075Z,56.70
2017-10-16T15:34:57.656Z,57.10
2017-10-16T15:37:25.193Z,57.30
2017-10-16T15:39:52.726Z,57.30
2017-10-16T15:42:20.331Z,57.50
2017-10-16T15:44:47.867Z,57.90
2017-10-16T15:47:16.515Z,58.30
2017-10-16T15:49:44.091Z,58.70
2017-10-16T15:52:11.639Z,58.90
2017-10-16T15:54:39.177Z,59.20
2017-10-16T15:57:06.751Z,59.40
2017-10-16T15:59:34.286Z,59.90
2017-10-16T16:02:01.824Z,60.10
2017-10-16T16:04:29.538Z,61.00
2017-10-16T16:06:57.063Z,61.10
2017-10-16T16:09:24.603Z,61.70
2017-10-16T16:11:52.663Z,62.00
2017-10-16T16:14:20.973Z,62.70
2017-10-16T16:16:48.522Z,62.70
2017-10-16T16:19:16.472Z,62.90
2017-10-16T16:21:44.015Z,63.10
2017-10-16T16:24:12.341Z,63.60
2017-10-16T16:26:39.975Z,63.50
2017-10-16T16:29:07.520Z,63.60
2017-10-16T16:31:35.828Z,64.40
2017-10-16T16:34:03.415Z,64.30
2017-10-16T16:36:30.951Z,65.10
2017-10-16T16:38:58.487Z,65.10
2017-10-16T16:41:26.831Z,66.10
2017-10-16T16:43:54.371Z,66.00
2017-10-16T16:46:21.909Z,65.90
2017-10-16T16:48:49.514Z,66.10
2017-10-16T16:51:17.053Z,66.60
2017-10-16T16:53:44.592Z,67.10
2017-10-16T16:56:12.167Z,67.40
2017-10-16T16:58:39.703Z,67.60
2017-10-16T17:01:07.272Z,68.00
2017-10-16T17:03:34.935Z,68.10
2017-10-16T17:06:02.495Z,68.70
2017-10-16T17:08:30.031Z,68.80
2017-10-16T17:10:57.637Z,69.60
2017-10-16T17:13:25.180Z,70.10
2017-10-16T17:15:52.745Z,70.50
2017-10-16T17:18:20.514Z,70.90
2017-10-16T17:20:48.042Z,71.00
2017-10-16T17:23:16.413Z,71.20
2017-10-16T17:25:43.992Z,71.20
2017-10-16T17:28:11.899Z,71.20
2017-10-16T17:30:39.561Z,71.60
2017-10-16T17:33:07.219Z,71.90
2017-10-16T17:35:34.854Z,72.10
2017-10-16T17:38:02.384Z,72.50
2017-10-16T17:40:29.958Z,73.10
2017-10-16T17:42:59.474Z,73.00
2017-10-16T17:45:27.071Z,73.30
2017-10-16T17:47:54.659Z,73.60
2017-10-16T17:50:22.201Z,73.60
2017-10-16T17:52:49.875Z,73.80
2017-10-16T17:55:18.260Z,74.20
2017-10-16T17:57:45.787Z,74.10
2017-10-16T18:00:15.677Z,75.00
2017-10-16T18:02:43.246Z,74.90
2017-10-16T18:05:10.770Z,75.30
2017-10-16T18:07:38.307Z,75.50
2017-10-16T18:10:05.891Z,76.00
2017-10-16T18:12:33.444Z,76.00
2017-10-16T18:15:02.243Z,76.60
2017-10-16T18:17:30.262Z,76.60
2017-10-16T18:19:57.795Z,76.90
2017-10-16T18:22:25.369Z,77.00
2017-10-16T18:24:52.956Z,77.20
2017-10-16T18:27:20.582Z,77.20
2017-10-16T18:29:48.304Z,77.20
2017-10-16T18:32:17.872Z,77.20
2017-10-16T18:34:46.408Z,77.30
2017-10-16T18:37:15.848Z,77.40
2017-10-16T18:39:47.237Z,77.60
2017-10-16T18:44:52.997Z,77.70
2017-10-16T18:47:22.203Z,77.90
2017-10-16T18:49:49.861Z,78.00
2017-10-16T18:52:17.860Z,77.90
2017-10-16T18:54:45.503Z,77.60
2017-10-16T18:57:19.281Z,77.30
2017-10-16T18:59:46.914Z,77.30
2017-10-16T19:02:25.340Z,77.20
2017-10-16T19:08:47.383Z,77.60
2017-10-16T19:11:16.552Z,78.70
2017-10-16T19:13:44.195Z,78.40
2017-10-16T19:16:12.271Z,78.70
2017-10-16T19:18:39.813Z,78.30
2017-10-16T19:21:07.391Z,78.60
2017-10-16T19:23:34.972Z,78.50
2017-10-16T19:26:02.527Z,78.60
2017-10-16T19:28:32.642Z,78.60
2017-10-16T19:31:00.359Z,78.80
2017-10-16T19:33:28.013Z,79.00
2017-10-16T19:35:55.620Z,79.00
2017-10-16T19:38:24.116Z,79.10
2017-10-16T19:40:51.708Z,79.10
2017-10-16T19:43:19.357Z,79.40
2017-10-16T19:45:47.469Z,79.40
2017-10-16T19:48:16.487Z,79.70
2017-10-16T19:50:44.019Z,79.60
2017-10-16T19:53:11.740Z,79.50
2017-10-16T19:55:39.275Z,79.70
2017-10-16T19:58:07.802Z,80.10
2017-10-16T20:00:35.897Z,79.90
2017-10-16T20:03:03.436Z,79.70
2017-10-16T20:05:31.099Z,79.80
2017-10-16T20:07:58.684Z,79.90
2017-10-16T20:10:26.235Z,80.10
2017-10-16T20:12:53.775Z,80.00
2017-10-16T20:15:21.516Z,80.10
2017-10-16T20:17:49.645Z,80.10
2017-10-16T20:20:17.448Z,80.00
2017-10-16T20:22:45.156Z,79.80
2017-10-16T20:25:13.616Z,80.50
2017-10-16T20:27:41.204Z,80.10
2017-10-16T20:30:08.784Z,80.00
2017-10-16T20:32:36.339Z,80.10
2017-10-16T20:35:03.908Z,80.00
2017-10-16T20:37:31.622Z,80.10
2017-10-16T20:39:59.155Z,80.10
2017-10-16T20:42:27.472Z,80.10
2017-10-16T20:44:55.077Z,80.10
2017-10-16T20:47:22.885Z,80.10
2017-10-16T20:49:50.448Z,80.00
2017-10-16T20:52:18.023Z,80.00
2017-10-16T20:54:45.602Z,80.10
2017-10-16T20:57:14.584Z,80.10
2017-10-16T21:04:08.363Z,80.10
2017-10-16T21:06:36.118Z,80.40
2017-10-16T21:09:03.855Z,80.50
2017-10-16T21:11:31.982Z,81.00
2017-10-16T21:13:59.514Z,81.30
2017-10-16T21:16:27.135Z,81.40
2017-10-16T21:18:55.267Z,81.10
2017-10-16T21:21:22.943Z,81.00
2017-10-16T21:23:50.850Z,81.20
2017-10-16T21:26:18.503Z,81.10
2017-10-16T21:28:46.169Z,81.30
2017-10-16T21:31:20.408Z,81.30
2017-10-16T21:39:53.044Z,81.30
2017-10-16T21:42:20.615Z,82.70
2017-10-16T21:44:48.349Z,82.90
2017-10-16T21:47:16.679Z,83.40
2017-10-16T21:49:44.503Z,83.20
2017-10-16T21:52:12.146Z,83.40
2017-10-16T21:54:40.492Z,83.60
2017-10-16T21:57:08.040Z,83.60
2017-10-16T21:59:35.584Z,83.80
2017-10-16T22:02:03.160Z,83.70
2017-10-16T22:04:30.788Z,83.70
2017-10-16T22:06:58.490Z,83.50
2017-10-16T22:09:26.090Z,83.60
2017-10-16T22:11:53.619Z,83.80
2017-10-16T22:14:21.166Z,83.50
2017-10-16T22:16:48.747Z,83.30
2017-10-16T22:19:17.160Z,83.10
2017-10-16T22:21:44.708Z,83.10
2017-10-16T22:24:13.984Z,82.90
2017-10-16T22:26:41.525Z,82.90
2017-10-16T22:29:09.109Z,82.80
2017-10-16T22:31:36.743Z,82.80
2017-10-16T22:34:04.280Z,83.10
2017-10-16T22:36:31.816Z,83.20
2017-10-16T22:39:00.151Z,82.70
2017-10-16T22:41:27.687Z,82.70
2017-10-16T22:43:55.227Z,82.40
2017-10-16T22:46:22.812Z,82.40
2017-10-16T22:48:52.004Z,82.30
2017-10-16T22:51:19.547Z,82.30
2017-10-16T22:53:58.818Z,81.50
2017-10-16T22:56:26.359Z,81.80
2017-10-16T22:58:53.891Z,81.40
2017-10-16T23:01:21.468Z,80.80
2017-10-16T23:03:49.005Z,81.30
2017-10-16T23:06:17.304Z,81.80
2017-10-16T23:08:44.870Z,81.80
2017-10-16T23:11:12.408Z,81.90
2017-10-16T23:13:39.949Z,82.00
2017-10-16T23:16:07.559Z,82.40
2017-10-16T23:18:35.092Z,82.60
2017-10-16T23:21:03.244Z,82.90
2017-10-16T23:23:30.815Z,83.90
2017-10-16T23:25:59.116Z,83.80
2017-10-16T23:28:26.660Z,83.80
2017-10-16T23:30:54.231Z,84.00
2017-10-16T23:33:21.772Z,83.60
2017-10-16T23:35:50.079Z,83.30
2017-10-16T23:38:17.687Z,83.30
2017-10-16T23:40:45.219Z,83.50
2017-10-16T23:43:13.883Z,83.40
2017-10-16T23:45:41.459Z,83.70
2017-10-16T23:48:08.983Z,83.60
2017-10-16T23:50:36.521Z,83.40
2017-10-16T23:53:04.868Z,84.10
2017-10-16T23:55:32.420Z,84.00
2017-10-16T23:57:59.956Z,83.90
